createdAt,value
2023-04-29T00:02:37.323Z,100794.03
2023-04-29T00:05:59.511Z,100801.81
2023-04-29T00:09:22.505Z,100803.53
2023-04-29T00:12:44.255Z,100800.97
2023-04-29T00:16:06.942Z,100804.41
2023-04-29T00:19:30.552Z,100805.28
2023-04-29T00:22:52.612Z,100807.03
2023-04-29T00:26:14.566Z,100797.59
2023-04-29T00:29:36.962Z,100795.03
2023-04-29T00:32:58.827Z,100793.34
2023-04-29T00:36:22.062Z,100762.56
2023-04-29T00:39:43.987Z,100792.56
2023-04-29T00:43:05.944Z,100797.75
2023-04-29T00:46:27.628Z,100791.81
2023-04-29T00:49:49.753Z,100795.25
2023-04-29T00:53:13.705Z,100798.75
2023-04-29T00:56:37.035Z,100802.22
2023-04-29T00:59:59.675Z,100797.09
2023-04-29T01:03:21.869Z,100793.69
2023-04-29T01:06:57.453Z,100798.88
2023-04-29T01:10:27.947Z,100792.91
2023-04-29T01:13:52.615Z,100796.34
2023-04-29T01:17:20.982Z,100794.59
2023-04-29T01:20:44.931Z,100791.16
2023-04-29T01:24:08.294Z,100804.03
2023-04-29T01:27:33.170Z,100801.41
2023-04-29T01:31:06.593Z,100805.69
2023-04-29T01:34:35.458Z,100795.38
2023-04-29T01:38:04.345Z,100794.47
2023-04-29T01:41:36.278Z,100804.81
2023-04-29T01:45:02.288Z,100768.03
2023-04-29T01:48:25.572Z,100800.56
2023-04-29T01:51:47.396Z,100801.44
2023-04-29T01:55:11.255Z,100802.28
2023-04-29T01:58:34.468Z,100802.28
2023-04-29T02:01:58.793Z,100805.72
2023-04-29T02:05:20.618Z,100814.31
2023-04-29T02:08:42.624Z,100811.72
2023-04-29T02:12:05.284Z,100807.41
2023-04-29T02:15:29.370Z,100809.09
2023-04-29T02:18:51.283Z,100804.78
2023-04-29T02:22:13.699Z,100805.63
2023-04-29T02:25:35.540Z,100809.03
2023-04-29T02:28:57.582Z,100804.69
2023-04-29T02:32:21.271Z,100768.72
2023-04-29T02:35:43.354Z,100802.94
2023-04-29T02:39:05.610Z,100800.34
2023-04-29T02:42:27.406Z,100806.31
2023-04-29T02:45:49.005Z,100791.75
2023-04-29T02:49:12.846Z,100806.25
2023-04-29T02:52:34.599Z,100817.38
2023-04-29T02:55:57.314Z,100804.47
2023-04-29T02:59:19.252Z,100815.53
2023-04-29T03:02:41.462Z,100819.75
2023-04-29T03:06:05.036Z,100811.09
2023-04-29T03:09:26.964Z,100805.03
2023-04-29T03:12:48.767Z,100808.38
2023-04-29T03:16:10.710Z,100820.34
2023-04-29T03:19:32.638Z,100821.94
2023-04-29T03:22:55.985Z,100813.25
2023-04-29T03:26:18.385Z,100821.72
2023-04-29T03:29:40.751Z,100814.75
2023-04-29T03:33:03.029Z,100804.31
2023-04-29T03:36:24.837Z,100811.97
2023-04-29T03:39:48.279Z,100810.09
2023-04-29T03:43:10.381Z,100811.69
2023-04-29T03:46:32.702Z,100802.03
2023-04-29T03:49:54.634Z,100818.81
2023-04-29T03:53:16.867Z,100815.94
2023-04-29T03:56:41.216Z,100813.06
2023-04-29T04:00:03.219Z,100818.78
2023-04-29T04:03:26.173Z,100811.63
2023-04-29T04:06:51.755Z,100812.97
2023-04-29T04:10:13.759Z,100811.78
2023-04-29T04:13:37.055Z,100806.25
2023-04-29T04:16:59.123Z,100770.91
2023-04-29T04:20:20.892Z,100806.44
2023-04-29T04:23:44.193Z,100803.56
2023-04-29T04:27:05.998Z,100807.69
2023-04-29T04:30:28.961Z,100802.13
2023-04-29T04:33:51.148Z,100808.63
2023-04-29T04:37:13.174Z,100809.00
2023-04-29T04:40:34.768Z,100813.00
2023-04-29T04:43:56.563Z,100811.91
2023-04-29T04:47:19.858Z,100817.03
2023-04-29T04:50:41.717Z,100794.88
2023-04-29T04:54:03.675Z,100823.78
2023-04-29T04:57:25.898Z,100818.38
2023-04-29T05:00:48.022Z,100826.97
2023-04-29T05:04:11.606Z,100827.75
2023-04-29T05:07:35.954Z,100829.34
2023-04-29T05:10:58.660Z,100831.16
2023-04-29T05:14:20.549Z,100838.13
2023-04-29T05:17:42.238Z,100832.00
2023-04-29T05:21:05.647Z,100834.44
2023-04-29T05:24:27.470Z,100833.53
2023-04-29T05:27:48.988Z,100832.69
2023-04-29T05:34:33.100Z,100836.66
2023-04-29T05:37:56.252Z,100832.22
2023-04-29T05:41:18.218Z,100835.75
2023-04-29T05:44:41.122Z,100840.25
2023-04-29T05:48:03.221Z,100838.19
2023-04-29T05:51:25.223Z,100846.25
2023-04-29T05:54:48.692Z,100842.78
2023-04-29T05:58:10.672Z,100849.16
2023-04-29T06:01:33.088Z,100839.34
2023-04-29T06:04:55.103Z,100840.63
2023-04-29T06:08:17.291Z,100831.75
2023-04-29T06:11:40.532Z,100825.47
2023-04-29T06:15:02.756Z,100839.31
2023-04-29T06:18:24.530Z,100840.84
2023-04-29T06:21:46.499Z,100836.31
2023-04-29T06:25:08.406Z,100843.22
2023-04-29T06:28:31.989Z,100842.94
2023-04-29T06:31:54.445Z,100835.38
2023-04-29T06:35:16.261Z,100840.34
2023-04-29T06:38:38.045Z,100845.31
2023-04-29T06:42:00.248Z,100854.34
2023-04-29T06:45:25.132Z,100862.06
2023-04-29T06:48:46.921Z,100856.94
2023-04-29T06:52:09.112Z,100863.59
2023-04-29T06:55:31.015Z,100849.13
2023-04-29T06:58:53.043Z,100852.19
2023-04-29T07:02:16.529Z,100851.84
2023-04-29T07:05:39.490Z,100850.47
2023-04-29T07:09:01.165Z,100854.09
2023-04-29T07:12:23.134Z,100852.56
2023-04-29T07:15:44.858Z,100848.13
2023-04-29T07:19:08.143Z,100851.97
2023-04-29T07:22:30.034Z,100859.56
2023-04-29T07:25:52.447Z,100858.13
2023-04-29T07:29:14.189Z,100852.91
2023-04-29T07:32:36.192Z,100853.53
2023-04-29T07:35:59.564Z,100861.31
2023-04-29T07:39:21.816Z,100855.91
2023-04-29T07:42:43.682Z,100849.56
2023-04-29T07:46:06.195Z,100854.34
2023-04-29T07:49:28.494Z,100853.56
2023-04-29T07:52:51.707Z,100855.59
2023-04-29T07:56:13.941Z,100853.13
2023-04-29T07:59:35.970Z,100844.31
2023-04-29T08:02:58.628Z,100841.41
2023-04-29T08:06:21.006Z,100841.69
2023-04-29T08:09:44.421Z,100855.06
2023-04-29T08:13:06.391Z,100862.50
2023-04-29T08:16:28.546Z,100858.09
2023-04-29T08:19:50.302Z,100852.06
2023-04-29T08:23:12.769Z,100852.22
2023-04-29T08:26:35.914Z,100840.47
2023-04-29T08:29:57.754Z,100845.38
2023-04-29T08:33:19.706Z,100856.03
2023-04-29T08:36:41.738Z,100859.16
2023-04-29T08:40:03.811Z,100839.31
2023-04-29T08:43:28.215Z,100851.38
2023-04-29T08:46:50.801Z,100864.47
2023-04-29T08:50:13.309Z,100869.84
2023-04-29T08:53:35.533Z,100869.75
2023-04-29T08:56:59.446Z,100875.78
2023-04-29T09:00:23.845Z,100868.19
2023-04-29T09:03:52.970Z,100870.22
2023-04-29T09:07:15.293Z,100865.34
2023-04-29T09:10:38.046Z,100858.34
2023-04-29T09:14:02.006Z,100865.50
2023-04-29T09:17:40.102Z,100854.34
2023-04-29T09:21:15.892Z,100858.25
2023-04-29T09:24:38.177Z,100851.97
2023-04-29T09:28:00.063Z,100856.53
2023-04-29T09:31:29.394Z,100843.28
2023-04-29T09:34:52.965Z,100861.56
2023-04-29T09:38:16.680Z,100853.22
2023-04-29T09:41:43.248Z,100846.25
2023-04-29T09:45:05.486Z,100849.59
2023-04-29T09:48:33.852Z,100843.66
2023-04-29T09:51:59.087Z,100846.22
2023-04-29T09:55:21.756Z,100843.25
2023-04-29T09:58:43.584Z,100836.06
2023-04-29T10:02:11.784Z,100851.31
2023-04-29T10:05:33.699Z,100850.63
2023-04-29T10:08:57.368Z,100859.78
2023-04-29T10:12:21.152Z,100854.28
2023-04-29T10:15:51.148Z,100844.56
2023-04-29T10:19:14.138Z,100848.81
2023-04-29T10:22:46.657Z,100854.28
2023-04-29T10:26:13.611Z,100854.09
2023-04-29T10:29:38.072Z,100850.53
2023-04-29T10:33:03.532Z,100844.34
2023-04-29T10:36:27.945Z,100844.19
2023-04-29T10:39:54.259Z,100846.34
2023-04-29T10:43:17.585Z,100844.03
2023-04-29T10:46:39.566Z,100841.81
2023-04-29T10:50:06.194Z,100851.53
2023-04-29T10:53:29.229Z,100856.22
2023-04-29T10:56:53.105Z,100847.13
2023-04-29T11:00:27.645Z,100851.31
2023-04-29T11:03:58.700Z,100845.22
2023-04-29T11:07:29.060Z,100832.63
2023-04-29T11:10:54.415Z,100833.78
2023-04-29T11:14:17.388Z,100848.13
2023-04-29T11:17:41.566Z,100833.25
2023-04-29T11:21:16.322Z,100839.41
2023-04-29T11:24:38.120Z,100832.63
2023-04-29T11:28:02.003Z,100836.38
2023-04-29T11:31:28.982Z,100822.25
2023-04-29T11:34:52.377Z,100831.94
2023-04-29T11:38:14.341Z,100835.78
2023-04-29T11:41:36.679Z,100829.94
2023-04-29T11:45:00.531Z,100826.41
2023-04-29T11:48:24.289Z,100826.75
2023-04-29T11:51:47.412Z,100822.34
2023-04-29T11:55:11.962Z,100824.03
2023-04-29T11:58:34.016Z,100819.66
2023-04-29T12:01:55.966Z,100809.13
2023-04-29T12:05:19.632Z,100822.38
2023-04-29T12:08:43.211Z,100817.19
2023-04-29T12:12:06.889Z,100818.66
2023-04-29T12:15:30.441Z,100816.81
2023-04-29T12:18:53.075Z,100813.56
2023-04-29T12:22:15.042Z,100808.16
2023-04-29T12:25:38.238Z,100806.31
2023-04-29T12:29:00.892Z,100799.59
2023-04-29T12:32:25.025Z,100801.22
2023-04-29T12:35:46.719Z,100795.13
2023-04-29T12:39:10.345Z,100797.91
2023-04-29T12:42:35.348Z,100788.25
2023-04-29T12:46:02.735Z,100792.72
2023-04-29T12:49:26.035Z,100790.88
2023-04-29T12:52:47.785Z,100774.28
2023-04-29T12:56:09.676Z,100785.88
2023-04-29T12:59:32.702Z,100798.75
2023-04-29T13:02:55.242Z,100788.09
2023-04-29T13:06:18.205Z,100789.47
2023-04-29T13:09:41.841Z,100792.72
2023-04-29T13:13:04.152Z,100791.38
2023-04-29T13:16:28.196Z,100788.94
2023-04-29T13:19:51.768Z,100787.75
2023-04-29T13:23:13.814Z,100784.13
2023-04-29T13:26:35.685Z,100781.91
2023-04-29T13:29:58.216Z,100783.34
2023-04-29T13:33:21.641Z,100778.81
2023-04-29T13:36:43.667Z,100767.31
2023-04-29T13:40:08.158Z,100779.16
2023-04-29T13:43:37.576Z,100772.22
2023-04-29T13:47:01.863Z,100762.16
2023-04-29T13:51:14.016Z,100760.88
2023-04-29T14:04:21.127Z,100730.69
2023-04-29T14:07:44.353Z,100749.22
2023-04-29T14:11:06.426Z,100751.47
2023-04-29T14:14:28.177Z,100751.41
2023-04-29T14:17:51.548Z,100738.44
2023-04-29T14:21:13.885Z,100744.81
2023-04-29T14:24:41.235Z,100733.84
2023-04-29T14:28:04.121Z,100734.69
2023-04-29T14:31:28.132Z,100735.88
2023-04-29T14:34:50.185Z,100723.03
2023-04-29T14:38:11.972Z,100724.22
2023-04-29T14:41:35.082Z,100726.31
2023-04-29T14:44:57.091Z,100717.94
2023-04-29T14:48:18.697Z,100719.97
2023-04-29T14:51:40.546Z,100711.28
2023-04-29T14:55:02.355Z,100700.25
2023-04-29T14:58:25.934Z,100700.56
2023-04-29T15:01:47.784Z,100696.41
2023-04-29T15:05:10.224Z,100697.66
2023-04-29T15:08:31.833Z,100688.81
2023-04-29T15:11:53.672Z,100682.72
2023-04-29T15:15:17.083Z,100679.75
2023-04-29T15:18:39.287Z,100677.47
2023-04-29T15:22:01.081Z,100673.06
2023-04-29T15:25:25.430Z,100667.81
2023-04-29T15:28:48.954Z,100667.97
2023-04-29T15:32:12.332Z,100671.28
2023-04-29T15:35:36.559Z,100665.34
2023-04-29T15:38:58.662Z,100669.19
2023-04-29T15:42:21.029Z,100663.25
2023-04-29T15:45:43.464Z,100656.25
2023-04-29T15:49:07.196Z,100661.44
2023-04-29T15:52:29.005Z,100659.94
2023-04-29T15:55:51.281Z,100657.47
2023-04-29T15:59:13.529Z,100655.28
2023-04-29T16:02:35.422Z,100648.97
2023-04-29T16:05:58.927Z,100640.88
2023-04-29T16:09:21.539Z,100636.91
2023-04-29T16:12:43.157Z,100635.53
2023-04-29T16:16:05.248Z,100633.31
2023-04-29T16:19:27.250Z,100627.63
2023-04-29T16:22:50.677Z,100635.59
2023-04-29T16:26:12.747Z,100623.66
2023-04-29T16:29:34.559Z,100613.66
2023-04-29T16:32:56.725Z,100624.31
2023-04-29T16:36:19.090Z,100614.16
2023-04-29T16:39:42.485Z,100611.75
2023-04-29T16:43:04.554Z,100605.94
2023-04-29T16:46:26.922Z,100604.47
2023-04-29T16:49:49.328Z,100601.25
2023-04-29T16:53:11.519Z,100606.75
2023-04-29T16:56:34.830Z,100605.13
2023-04-29T16:59:57.211Z,100613.22
2023-04-29T17:03:19.253Z,100606.44
2023-04-29T17:06:41.741Z,100609.28
2023-04-29T17:10:04.070Z,100591.59
2023-04-29T17:13:27.218Z,100607.25
2023-04-29T17:16:49.321Z,100599.53
2023-04-29T17:20:12.518Z,100589.28
2023-04-29T17:23:34.459Z,100584.34
2023-04-29T17:26:56.671Z,100583.81
2023-04-29T17:30:20.262Z,100581.50
2023-04-29T17:33:54.649Z,100570.56
2023-04-29T17:37:17.772Z,100565.88
2023-04-29T17:40:39.488Z,100565.34
2023-04-29T17:44:01.088Z,100551.00
2023-04-29T17:47:24.301Z,100553.75
2023-04-29T17:50:46.562Z,100551.28
2023-04-29T17:54:09.272Z,100546.28
2023-04-29T17:57:31.412Z,100536.03
2023-04-29T18:00:53.388Z,100504.91
2023-04-29T18:04:17.033Z,100525.25
2023-04-29T18:07:40.091Z,100523.72
2023-04-29T18:11:02.137Z,100519.47
2023-04-29T18:14:24.838Z,100521.47
2023-04-29T18:17:47.022Z,100522.69
2023-04-29T18:21:10.197Z,100512.50
2023-04-29T18:24:32.077Z,100514.38
2023-04-29T18:28:07.662Z,100503.19
2023-04-29T18:31:35.196Z,100509.41
2023-04-29T18:34:57.805Z,100501.78
2023-04-29T18:38:21.228Z,100501.84
2023-04-29T18:41:42.892Z,100497.66
2023-04-29T18:45:05.106Z,100496.88
2023-04-29T18:48:27.855Z,100476.94
2023-04-29T18:51:49.985Z,100476.16
2023-04-29T18:55:13.596Z,100463.16
2023-04-29T18:58:36.173Z,100462.38
2023-04-29T19:01:58.158Z,100459.03
2023-04-29T19:05:20.022Z,100454.69
2023-04-29T19:08:42.161Z,100442.69
2023-04-29T19:12:07.688Z,100425.25
2023-04-29T19:15:32.135Z,100430.56
2023-04-29T19:18:54.067Z,100434.22
2023-04-29T19:22:16.531Z,100433.38
2023-04-29T19:25:38.558Z,100429.16
2023-04-29T19:29:02.181Z,100435.31
2023-04-29T19:32:24.302Z,100428.44
2023-04-29T19:35:46.006Z,100427.59
2023-04-29T19:39:08.944Z,100415.28
2023-04-29T19:42:31.303Z,100401.25
2023-04-29T19:45:54.786Z,100397.66
2023-04-29T19:49:16.956Z,100381.91
2023-04-29T19:52:38.583Z,100368.00
2023-04-29T19:56:00.618Z,100352.31
2023-04-29T19:59:22.824Z,100358.28
2023-04-29T20:02:48.692Z,100355.47
2023-04-29T20:06:11.873Z,100388.50
2023-04-29T20:09:33.714Z,100372.28
2023-04-29T20:12:55.584Z,100353.16
2023-04-29T20:16:17.437Z,100343.47
2023-04-29T20:19:40.542Z,100340.94
2023-04-29T20:23:02.620Z,100321.81
2023-04-29T20:26:24.638Z,100300.91
2023-04-29T20:29:46.428Z,100287.84
2023-04-29T20:33:09.279Z,100280.00
2023-04-29T20:36:32.638Z,100275.59
2023-04-29T20:39:54.707Z,100265.31
2023-04-29T20:43:16.503Z,100252.09
2023-04-29T20:46:38.422Z,100259.84
2023-04-29T20:50:00.709Z,100257.16
2023-04-29T20:53:23.909Z,100239.81
2023-04-29T20:56:46.088Z,100227.63
2023-04-29T21:00:09.793Z,100219.72
2023-04-29T21:03:31.841Z,100196.69
2023-04-29T21:06:53.654Z,100217.19
2023-04-29T21:10:17.988Z,100190.31
2023-04-29T21:13:40.001Z,100181.75
2023-04-29T21:17:02.258Z,100174.78
2023-04-29T21:20:24.910Z,100167.84
2023-04-29T21:23:46.854Z,100158.25
2023-04-29T21:27:10.101Z,100159.16
2023-04-29T21:30:31.794Z,100154.88
2023-04-29T21:33:53.683Z,100143.50
2023-04-29T21:37:15.901Z,100138.28
2023-04-29T21:40:42.791Z,100132.97
2023-04-29T21:44:07.766Z,100121.50
2023-04-29T21:47:30.274Z,100098.59
2023-04-29T21:50:52.481Z,100100.03
2023-04-29T21:54:14.238Z,100082.94
2023-04-29T22:01:25.710Z,100067.94
2023-04-29T22:04:47.390Z,100071.72
2023-04-29T22:08:09.285Z,100060.84
2023-04-29T22:11:31.288Z,100061.41
2023-04-29T22:14:53.154Z,100050.78
2023-04-29T22:18:16.611Z,100051.38
2023-04-29T22:21:40.716Z,100046.06
2023-04-29T22:25:03.565Z,100045.72
2023-04-29T22:28:25.576Z,100039.44
2023-04-29T22:31:47.371Z,100046.28
2023-04-29T22:35:11.423Z,100044.44
2023-04-29T22:38:33.219Z,100047.88
2023-04-29T22:41:55.118Z,100041.81
2023-04-29T22:45:16.993Z,100040.13
2023-04-29T22:48:38.770Z,100042.81
2023-04-29T22:52:02.212Z,100045.53
2023-04-29T22:55:24.320Z,100043.84
2023-04-29T22:58:46.393Z,100039.44
2023-04-29T23:02:08.563Z,100040.47
2023-04-29T23:05:30.381Z,100032.63
2023-04-29T23:08:54.267Z,100031.94
2023-04-29T23:12:16.064Z,100043.34
2023-04-29T23:15:37.826Z,100052.13
2023-04-29T23:18:59.492Z,100054.81
2023-04-29T23:22:21.083Z,100056.00
2023-04-29T23:25:45.448Z,100077.09
2023-04-29T23:29:07.535Z,100056.69
2023-04-29T23:32:29.339Z,100070.28
2023-04-29T23:35:51.738Z,100073.56
2023-04-29T23:39:14.392Z,100083.38
2023-04-29T23:42:37.527Z,100094.31
2023-04-29T23:45:59.591Z,100086.63
2023-04-29T23:49:21.576Z,100096.34
2023-04-29T23:52:43.372Z,100101.34
2023-04-29T23:56:05.048Z,100084.03
2023-04-29T23:59:28.590Z,100098.16
